sensor_id;sensor_type;location;lat;lon;timestamp;P1;durP1;ratioP1;P2;durP2;ratioP2
79570;SDS011;69034;49.444;7.758;2024-01-30T00:04:29;5.57;;;2.33;;
79570;SDS011;69034;49.444;7.758;2024-01-30T00:08:30;8.32;;;2.05;;
79570;SDS011;69034;49.444;7.758;2024-01-30T00:16:32;6.32;;;2.45;;
79570;SDS011;69034;49.444;7.758;2024-01-30T00:20:33;6.35;;;2.13;;
79570;SDS011;69034;49.444;7.758;2024-01-30T00:24:33;5.47;;;2.15;;
79570;SDS011;69034;49.444;7.758;2024-01-30T00:32:34;5.82;;;2.20;;
79570;SDS011;69034;49.444;7.758;2024-01-30T00:40:36;10.50;;;3.30;;
79570;SDS011;69034;49.444;7.758;2024-01-30T00:48:38;4.68;;;2.03;;
79570;SDS011;69034;49.444;7.758;2024-01-30T00:56:41;6.45;;;2.30;;
79570;SDS011;69034;49.444;7.758;2024-01-30T01:04:42;3.05;;;1.83;;
79570;SDS011;69034;49.444;7.758;2024-01-30T01:08:44;5.32;;;2.47;;
79570;SDS011;69034;49.444;7.758;2024-01-30T01:16:45;10.32;;;3.20;;
79570;SDS011;69034;49.444;7.758;2024-01-30T01:24:46;4.75;;;2.63;;
79570;SDS011;69034;49.444;7.758;2024-01-30T01:32:48;5.85;;;3.28;;
79570;SDS011;69034;49.444;7.758;2024-01-30T01:36:54;7.45;;;2.28;;
79570;SDS011;69034;49.444;7.758;2024-01-30T01:40:55;5.35;;;2.90;;
79570;SDS011;69034;49.444;7.758;2024-01-30T01:44:56;4.75;;;2.08;;
79570;SDS011;69034;49.444;7.758;2024-01-30T01:52:57;2.72;;;1.35;;
79570;SDS011;69034;49.444;7.758;2024-01-30T01:57:00;3.65;;;1.80;;
79570;SDS011;69034;49.444;7.758;2024-01-30T02:05:01;4.95;;;1.95;;
79570;SDS011;69034;49.444;7.758;2024-01-30T02:13:04;9.85;;;2.95;;
79570;SDS011;69034;49.444;7.758;2024-01-30T02:21:05;4.00;;;1.98;;
79570;SDS011;69034;49.444;7.758;2024-01-30T02:29:07;5.07;;;2.10;;
79570;SDS011;69034;49.444;7.758;2024-01-30T02:37:08;7.03;;;1.70;;
79570;SDS011;69034;49.444;7.758;2024-01-30T02:45:09;6.28;;;2.30;;
79570;SDS011;69034;49.444;7.758;2024-01-30T02:49:10;2.53;;;1.67;;
79570;SDS011;69034;49.444;7.758;2024-01-30T02:57:11;4.70;;;1.90;;
79570;SDS011;69034;49.444;7.758;2024-01-30T03:05:12;4.63;;;1.90;;
79570;SDS011;69034;49.444;7.758;2024-01-30T03:13:15;4.97;;;1.95;;
79570;SDS011;69034;49.444;7.758;2024-01-30T03:21:16;3.45;;;1.50;;
79570;SDS011;69034;49.444;7.758;2024-01-30T03:25:17;4.60;;;1.63;;
79570;SDS011;69034;49.444;7.758;2024-01-30T03:33:18;3.58;;;1.55;;
79570;SDS011;69034;49.444;7.758;2024-01-30T03:37:18;4.32;;;2.45;;
79570;SDS011;69034;49.444;7.758;2024-01-30T03:41:19;3.40;;;1.25;;
79570;SDS011;69034;49.444;7.758;2024-01-30T03:49:20;4.90;;;2.28;;
79570;SDS011;69034;49.444;7.758;2024-01-30T03:57:21;5.75;;;2.58;;
79570;SDS011;69034;49.444;7.758;2024-01-30T04:05:22;3.03;;;1.80;;
79570;SDS011;69034;49.444;7.758;2024-01-30T04:13:23;6.85;;;1.95;;
79570;SDS011;69034;49.444;7.758;2024-01-30T04:17:24;3.38;;;1.30;;
79570;SDS011;69034;49.444;7.758;2024-01-30T04:25:25;5.25;;;1.38;;
79570;SDS011;69034;49.444;7.758;2024-01-30T04:33:26;3.15;;;1.52;;
79570;SDS011;69034;49.444;7.758;2024-01-30T04:41:28;2.88;;;1.55;;
79570;SDS011;69034;49.444;7.758;2024-01-30T04:45:31;4.60;;;1.45;;
79570;SDS011;69034;49.444;7.758;2024-01-30T04:53:32;4.25;;;2.03;;
79570;SDS011;69034;49.444;7.758;2024-01-30T04:57:33;6.53;;;2.33;;
79570;SDS011;69034;49.444;7.758;2024-01-30T05:05:34;6.45;;;2.60;;
79570;SDS011;69034;49.444;7.758;2024-01-30T05:13:35;5.55;;;2.78;;
79570;SDS011;69034;49.444;7.758;2024-01-30T05:21:36;5.03;;;2.40;;
79570;SDS011;69034;49.444;7.758;2024-01-30T05:29:37;3.63;;;1.55;;
79570;SDS011;69034;49.444;7.758;2024-01-30T05:33:38;4.47;;;2.35;;
79570;SDS011;69034;49.444;7.758;2024-01-30T05:37:38;5.90;;;2.95;;
79570;SDS011;69034;49.444;7.758;2024-01-30T05:41:39;6.28;;;2.90;;
79570;SDS011;69034;49.444;7.758;2024-01-30T05:45:40;3.33;;;1.90;;
79570;SDS011;69034;49.444;7.758;2024-01-30T05:49:41;4.28;;;2.10;;
79570;SDS011;69034;49.444;7.758;2024-01-30T05:57:42;3.78;;;1.42;;
79570;SDS011;69034;49.444;7.758;2024-01-30T06:01:46;4.30;;;2.10;;
79570;SDS011;69034;49.444;7.758;2024-01-30T06:05:47;3.97;;;1.80;;
79570;SDS011;69034;49.444;7.758;2024-01-30T06:09:48;6.93;;;2.53;;
79570;SDS011;69034;49.444;7.758;2024-01-30T06:13:48;8.88;;;2.75;;
79570;SDS011;69034;49.444;7.758;2024-01-30T06:17:49;2.92;;;1.20;;
79570;SDS011;69034;49.444;7.758;2024-01-30T06:21:49;3.22;;;1.45;;
79570;SDS011;69034;49.444;7.758;2024-01-30T06:29:51;3.60;;;2.13;;
79570;SDS011;69034;49.444;7.758;2024-01-30T06:37:53;5.00;;;2.03;;
79570;SDS011;69034;49.444;7.758;2024-01-30T06:41:53;4.30;;;2.15;;
79570;SDS011;69034;49.444;7.758;2024-01-30T06:45:54;11.13;;;3.10;;
79570;SDS011;69034;49.444;7.758;2024-01-30T06:49:55;3.35;;;1.80;;
79570;SDS011;69034;49.444;7.758;2024-01-30T06:57:56;6.45;;;1.67;;
79570;SDS011;69034;49.444;7.758;2024-01-30T07:05:57;3.40;;;1.98;;
79570;SDS011;69034;49.444;7.758;2024-01-30T07:13:58;4.38;;;1.65;;
79570;SDS011;69034;49.444;7.758;2024-01-30T07:21:59;4.32;;;1.83;;
79570;SDS011;69034;49.444;7.758;2024-01-30T07:26:03;6.25;;;3.20;;
79570;SDS011;69034;49.444;7.758;2024-01-30T07:30:05;5.15;;;2.20;;
79570;SDS011;69034;49.444;7.758;2024-01-30T07:34:06;4.07;;;2.03;;
79570;SDS011;69034;49.444;7.758;2024-01-30T07:38:06;7.68;;;3.13;;
79570;SDS011;69034;49.444;7.758;2024-01-30T07:46:08;10.95;;;2.55;;
79570;SDS011;69034;49.444;7.758;2024-01-30T07:50:09;5.68;;;2.35;;
79570;SDS011;69034;49.444;7.758;2024-01-30T07:54:10;5.60;;;2.53;;
79570;SDS011;69034;49.444;7.758;2024-01-30T08:02:14;5.43;;;3.15;;
79570;SDS011;69034;49.444;7.758;2024-01-30T08:06:17;5.78;;;2.53;;
79570;SDS011;69034;49.444;7.758;2024-01-30T08:10:17;5.43;;;2.63;;
79570;SDS011;69034;49.444;7.758;2024-01-30T08:14:21;7.10;;;2.75;;
79570;SDS011;69034;49.444;7.758;2024-01-30T08:18:22;5.88;;;2.47;;
79570;SDS011;69034;49.444;7.758;2024-01-30T08:22:22;4.65;;;2.45;;
79570;SDS011;69034;49.444;7.758;2024-01-30T08:26:23;8.85;;;3.90;;
79570;SDS011;69034;49.444;7.758;2024-01-30T08:30:26;3.67;;;1.70;;
79570;SDS011;69034;49.444;7.758;2024-01-30T08:38:27;4.53;;;2.67;;
79570;SDS011;69034;49.444;7.758;2024-01-30T08:46:28;6.47;;;2.08;;
79570;SDS011;69034;49.444;7.758;2024-01-30T08:54:29;8.13;;;3.63;;
79570;SDS011;69034;49.444;7.758;2024-01-30T08:58:30;6.80;;;3.03;;
79570;SDS011;69034;49.444;7.758;2024-01-30T09:02:31;8.45;;;3.13;;
79570;SDS011;69034;49.444;7.758;2024-01-30T09:10:32;9.20;;;3.40;;
79570;SDS011;69034;49.444;7.758;2024-01-30T09:14:33;24.05;;;2.80;;
79570;SDS011;69034;49.444;7.758;2024-01-30T09:18:33;6.32;;;3.10;;
79570;SDS011;69034;49.444;7.758;2024-01-30T09:22:34;6.95;;;3.72;;
79570;SDS011;69034;49.444;7.758;2024-01-30T09:26:36;4.60;;;2.33;;
79570;SDS011;69034;49.444;7.758;2024-01-30T09:30:37;6.38;;;3.83;;
79570;SDS011;69034;49.444;7.758;2024-01-30T09:34:37;6.88;;;2.92;;
79570;SDS011;69034;49.444;7.758;2024-01-30T09:38:39;5.55;;;2.67;;
79570;SDS011;69034;49.444;7.758;2024-01-30T09:42:41;6.93;;;2.80;;
79570;SDS011;69034;49.444;7.758;2024-01-30T09:46:44;7.30;;;3.30;;
79570;SDS011;69034;49.444;7.758;2024-01-30T09:50:50;6.00;;;3.08;;
79570;SDS011;69034;49.444;7.758;2024-01-30T09:54:52;4.97;;;2.80;;
79570;SDS011;69034;49.444;7.758;2024-01-30T09:58:53;5.70;;;2.78;;
79570;SDS011;69034;49.444;7.758;2024-01-30T10:02:56;7.47;;;2.75;;
79570;SDS011;69034;49.444;7.758;2024-01-30T10:07:00;5.82;;;3.13;;
79570;SDS011;69034;49.444;7.758;2024-01-30T10:11:02;7.18;;;2.85;;
79570;SDS011;69034;49.444;7.758;2024-01-30T10:15:06;5.35;;;2.22;;
79570;SDS011;69034;49.444;7.758;2024-01-30T10:19:08;5.43;;;2.33;;
79570;SDS011;69034;49.444;7.758;2024-01-30T10:23:08;10.70;;;3.85;;
79570;SDS011;69034;49.444;7.758;2024-01-30T10:27:10;8.25;;;3.90;;
79570;SDS011;69034;49.444;7.758;2024-01-30T10:31:11;6.70;;;3.13;;
79570;SDS011;69034;49.444;7.758;2024-01-30T10:35:17;8.52;;;4.28;;
79570;SDS011;69034;49.444;7.758;2024-01-30T10:39:17;9.10;;;4.07;;
79570;SDS011;69034;49.444;7.758;2024-01-30T10:43:20;9.38;;;4.10;;
79570;SDS011;69034;49.444;7.758;2024-01-30T10:47:27;6.90;;;3.67;;
79570;SDS011;69034;49.444;7.758;2024-01-30T10:51:29;7.32;;;3.80;;
79570;SDS011;69034;49.444;7.758;2024-01-30T10:55:31;10.23;;;4.75;;
79570;SDS011;69034;49.444;7.758;2024-01-30T10:59:33;7.45;;;4.22;;
79570;SDS011;69034;49.444;7.758;2024-01-30T11:03:34;7.53;;;4.25;;
79570;SDS011;69034;49.444;7.758;2024-01-30T11:07:41;6.88;;;3.40;;
79570;SDS011;69034;49.444;7.758;2024-01-30T11:11:51;8.75;;;4.70;;
79570;SDS011;69034;49.444;7.758;2024-01-30T11:16:00;9.13;;;3.30;;
79570;SDS011;69034;49.444;7.758;2024-01-30T11:20:05;7.03;;;3.05;;
79570;SDS011;69034;49.444;7.758;2024-01-30T11:24:09;7.95;;;4.40;;
79570;SDS011;69034;49.444;7.758;2024-01-30T11:28:14;12.15;;;5.47;;
79570;SDS011;69034;49.444;7.758;2024-01-30T11:32:22;8.20;;;3.55;;
79570;SDS011;69034;49.444;7.758;2024-01-30T11:36:25;10.35;;;5.05;;
79570;SDS011;69034;49.444;7.758;2024-01-30T11:40:27;9.85;;;4.78;;
79570;SDS011;69034;49.444;7.758;2024-01-30T11:44:29;9.63;;;4.60;;
79570;SDS011;69034;49.444;7.758;2024-01-30T11:48:29;9.95;;;4.47;;
79570;SDS011;69034;49.444;7.758;2024-01-30T11:52:30;6.60;;;3.42;;
79570;SDS011;69034;49.444;7.758;2024-01-30T11:56:30;8.20;;;3.85;;
79570;SDS011;69034;49.444;7.758;2024-01-30T12:00:31;5.80;;;3.22;;
79570;SDS011;69034;49.444;7.758;2024-01-30T12:04:33;6.25;;;3.63;;
79570;SDS011;69034;49.444;7.758;2024-01-30T12:08:34;10.00;;;3.38;;
79570;SDS011;69034;49.444;7.758;2024-01-30T12:12:37;6.57;;;3.15;;
79570;SDS011;69034;49.444;7.758;2024-01-30T12:16:38;6.72;;;2.75;;
79570;SDS011;69034;49.444;7.758;2024-01-30T12:20:39;6.47;;;3.08;;
79570;SDS011;69034;49.444;7.758;2024-01-30T12:24:40;6.47;;;3.10;;
79570;SDS011;69034;49.444;7.758;2024-01-30T12:28:47;9.00;;;3.90;;
79570;SDS011;69034;49.444;7.758;2024-01-30T12:32:50;8.13;;;3.38;;
79570;SDS011;69034;49.444;7.758;2024-01-30T12:36:51;6.18;;;2.83;;
79570;SDS011;69034;49.444;7.758;2024-01-30T12:40:54;7.88;;;3.63;;
79570;SDS011;69034;49.444;7.758;2024-01-30T12:44:57;8.38;;;3.08;;
79570;SDS011;69034;49.444;7.758;2024-01-30T12:48:58;5.55;;;3.13;;
79570;SDS011;69034;49.444;7.758;2024-01-30T12:52:59;6.50;;;3.22;;
79570;SDS011;69034;49.444;7.758;2024-01-30T12:57:00;7.43;;;4.00;;
79570;SDS011;69034;49.444;7.758;2024-01-30T13:01:00;9.73;;;3.70;;
79570;SDS011;69034;49.444;7.758;2024-01-30T13:05:03;6.80;;;3.17;;
79570;SDS011;69034;49.444;7.758;2024-01-30T13:09:04;7.40;;;3.60;;
79570;SDS011;69034;49.444;7.758;2024-01-30T13:13:05;5.68;;;2.70;;
79570;SDS011;69034;49.444;7.758;2024-01-30T13:17:06;6.65;;;2.78;;
79570;SDS011;69034;49.444;7.758;2024-01-30T13:21:07;7.85;;;3.10;;
79570;SDS011;69034;49.444;7.758;2024-01-30T13:25:07;5.50;;;2.63;;
79570;SDS011;69034;49.444;7.758;2024-01-30T13:29:08;5.55;;;3.05;;
79570;SDS011;69034;49.444;7.758;2024-01-30T13:33:09;9.32;;;3.58;;
79570;SDS011;69034;49.444;7.758;2024-01-30T13:37:09;4.70;;;2.45;;
79570;SDS011;69034;49.444;7.758;2024-01-30T13:41:10;7.13;;;2.78;;
79570;SDS011;69034;49.444;7.758;2024-01-30T13:45:11;6.22;;;3.03;;
79570;SDS011;69034;49.444;7.758;2024-01-30T13:49:11;6.88;;;2.92;;
79570;SDS011;69034;49.444;7.758;2024-01-30T13:53:12;6.22;;;3.05;;
79570;SDS011;69034;49.444;7.758;2024-01-30T13:57:13;9.45;;;2.90;;
79570;SDS011;69034;49.444;7.758;2024-01-30T14:01:13;5.97;;;2.50;;
79570;SDS011;69034;49.444;7.758;2024-01-30T14:05:14;5.15;;;2.75;;
79570;SDS011;69034;49.444;7.758;2024-01-30T14:09:15;5.55;;;2.40;;
79570;SDS011;69034;49.444;7.758;2024-01-30T14:13:16;7.10;;;3.55;;
79570;SDS011;69034;49.444;7.758;2024-01-30T14:17:18;6.47;;;3.08;;
79570;SDS011;69034;49.444;7.758;2024-01-30T14:21:19;8.45;;;2.50;;
79570;SDS011;69034;49.444;7.758;2024-01-30T14:25:19;12.10;;;3.45;;
79570;SDS011;69034;49.444;7.758;2024-01-30T14:29:20;6.80;;;2.97;;
79570;SDS011;69034;49.444;7.758;2024-01-30T14:33:21;7.50;;;3.00;;
79570;SDS011;69034;49.444;7.758;2024-01-30T14:37:22;6.45;;;2.88;;
79570;SDS011;69034;49.444;7.758;2024-01-30T14:41:23;8.38;;;2.58;;
79570;SDS011;69034;49.444;7.758;2024-01-30T14:45:24;5.80;;;2.90;;
79570;SDS011;69034;49.444;7.758;2024-01-30T14:49:25;7.90;;;2.90;;
79570;SDS011;69034;49.444;7.758;2024-01-30T14:53:25;6.57;;;3.28;;
79570;SDS011;69034;49.444;7.758;2024-01-30T14:57:27;7.80;;;2.92;;
79570;SDS011;69034;49.444;7.758;2024-01-30T15:01:28;7.68;;;2.92;;
79570;SDS011;69034;49.444;7.758;2024-01-30T15:05:29;8.00;;;3.38;;
79570;SDS011;69034;49.444;7.758;2024-01-30T15:09:29;5.88;;;2.85;;
79570;SDS011;69034;49.444;7.758;2024-01-30T15:13:31;8.07;;;4.00;;
79570;SDS011;69034;49.444;7.758;2024-01-30T15:17:34;7.45;;;3.25;;
79570;SDS011;69034;49.444;7.758;2024-01-30T15:21:34;5.55;;;2.90;;
79570;SDS011;69034;49.444;7.758;2024-01-30T15:25:35;8.63;;;3.75;;
79570;SDS011;69034;49.444;7.758;2024-01-30T15:29:36;8.50;;;4.30;;
79570;SDS011;69034;49.444;7.758;2024-01-30T15:33:36;5.82;;;3.08;;
79570;SDS011;69034;49.444;7.758;2024-01-30T15:37:37;5.78;;;3.00;;
79570;SDS011;69034;49.444;7.758;2024-01-30T15:41:38;5.55;;;2.88;;
79570;SDS011;69034;49.444;7.758;2024-01-30T15:45:40;5.78;;;2.88;;
79570;SDS011;69034;49.444;7.758;2024-01-30T15:49:41;10.00;;;4.13;;
79570;SDS011;69034;49.444;7.758;2024-01-30T15:53:42;7.05;;;3.00;;
79570;SDS011;69034;49.444;7.758;2024-01-30T15:57:42;6.43;;;3.03;;
79570;SDS011;69034;49.444;7.758;2024-01-30T16:01:43;6.25;;;2.78;;
79570;SDS011;69034;49.444;7.758;2024-01-30T16:05:48;9.20;;;3.35;;
79570;SDS011;69034;49.444;7.758;2024-01-30T16:09:50;5.68;;;2.33;;
79570;SDS011;69034;49.444;7.758;2024-01-30T16:13:51;6.93;;;3.45;;
79570;SDS011;69034;49.444;7.758;2024-01-30T16:17:52;8.65;;;2.65;;
79570;SDS011;69034;49.444;7.758;2024-01-30T16:21:53;4.95;;;2.70;;
79570;SDS011;69034;49.444;7.758;2024-01-30T16:25:54;7.03;;;2.45;;
79570;SDS011;69034;49.444;7.758;2024-01-30T16:29:55;8.00;;;3.10;;
79570;SDS011;69034;49.444;7.758;2024-01-30T16:33:55;9.32;;;3.13;;
79570;SDS011;69034;49.444;7.758;2024-01-30T16:37:57;8.10;;;3.83;;
79570;SDS011;69034;49.444;7.758;2024-01-30T16:41:58;6.90;;;3.15;;
79570;SDS011;69034;49.444;7.758;2024-01-30T16:45:59;10.38;;;3.55;;
79570;SDS011;69034;49.444;7.758;2024-01-30T16:49:59;6.90;;;3.35;;
79570;SDS011;69034;49.444;7.758;2024-01-30T16:54:00;8.80;;;3.70;;
79570;SDS011;69034;49.444;7.758;2024-01-30T16:58:01;6.47;;;3.47;;
79570;SDS011;69034;49.444;7.758;2024-01-30T17:02:02;6.90;;;2.75;;
79570;SDS011;69034;49.444;7.758;2024-01-30T17:06:03;8.00;;;2.13;;
79570;SDS011;69034;49.444;7.758;2024-01-30T17:10:12;8.30;;;3.15;;
79570;SDS011;69034;49.444;7.758;2024-01-30T17:14:16;7.65;;;3.03;;
79570;SDS011;69034;49.444;7.758;2024-01-30T17:18:17;9.30;;;3.72;;
79570;SDS011;69034;49.444;7.758;2024-01-30T17:22:26;5.93;;;2.60;;
79570;SDS011;69034;49.444;7.758;2024-01-30T17:26:29;13.25;;;4.43;;
79570;SDS011;69034;49.444;7.758;2024-01-30T17:30:30;9.30;;;3.95;;
79570;SDS011;69034;49.444;7.758;2024-01-30T17:34:31;13.95;;;4.38;;
79570;SDS011;69034;49.444;7.758;2024-01-30T17:38:31;8.27;;;3.78;;
79570;SDS011;69034;49.444;7.758;2024-01-30T17:42:32;8.73;;;3.25;;
79570;SDS011;69034;49.444;7.758;2024-01-30T17:46:33;7.60;;;3.08;;
79570;SDS011;69034;49.444;7.758;2024-01-30T17:50:34;10.25;;;4.22;;
79570;SDS011;69034;49.444;7.758;2024-01-30T17:54:35;8.23;;;3.50;;
79570;SDS011;69034;49.444;7.758;2024-01-30T17:58:36;4.82;;;2.70;;
79570;SDS011;69034;49.444;7.758;2024-01-30T18:02:41;7.43;;;4.07;;
79570;SDS011;69034;49.444;7.758;2024-01-30T18:06:42;9.82;;;4.28;;
79570;SDS011;69034;49.444;7.758;2024-01-30T18:10:42;9.02;;;4.68;;
79570;SDS011;69034;49.444;7.758;2024-01-30T18:14:43;10.77;;;5.75;;
79570;SDS011;69034;49.444;7.758;2024-01-30T18:18:44;10.77;;;6.38;;
79570;SDS011;69034;49.444;7.758;2024-01-30T18:22:45;10.25;;;6.88;;
79570;SDS011;69034;49.444;7.758;2024-01-30T18:26:48;7.25;;;4.47;;
79570;SDS011;69034;49.444;7.758;2024-01-30T18:30:50;12.32;;;5.68;;
79570;SDS011;69034;49.444;7.758;2024-01-30T18:34:53;7.07;;;4.22;;
79570;SDS011;69034;49.444;7.758;2024-01-30T18:38:54;14.18;;;5.68;;
79570;SDS011;69034;49.444;7.758;2024-01-30T18:42:55;8.02;;;4.82;;
79570;SDS011;69034;49.444;7.758;2024-01-30T18:46:56;7.60;;;4.40;;
79570;SDS011;69034;49.444;7.758;2024-01-30T18:50:58;7.57;;;4.28;;
79570;SDS011;69034;49.444;7.758;2024-01-30T18:54:59;14.32;;;4.97;;
79570;SDS011;69034;49.444;7.758;2024-01-30T18:59:00;11.75;;;5.10;;
79570;SDS011;69034;49.444;7.758;2024-01-30T19:03:04;11.27;;;4.15;;
79570;SDS011;69034;49.444;7.758;2024-01-30T19:07:05;12.05;;;4.38;;
79570;SDS011;69034;49.444;7.758;2024-01-30T19:11:06;12.30;;;4.63;;
79570;SDS011;69034;49.444;7.758;2024-01-30T19:15:06;8.80;;;3.90;;
79570;SDS011;69034;49.444;7.758;2024-01-30T19:19:09;8.93;;;4.53;;
79570;SDS011;69034;49.444;7.758;2024-01-30T19:23:11;9.90;;;3.83;;
79570;SDS011;69034;49.444;7.758;2024-01-30T19:27:14;8.50;;;3.75;;
79570;SDS011;69034;49.444;7.758;2024-01-30T19:31:14;9.00;;;3.65;;
79570;SDS011;69034;49.444;7.758;2024-01-30T19:35:15;11.02;;;5.18;;
79570;SDS011;69034;49.444;7.758;2024-01-30T19:39:16;8.95;;;4.60;;
79570;SDS011;69034;49.444;7.758;2024-01-30T19:43:17;8.57;;;4.32;;
79570;SDS011;69034;49.444;7.758;2024-01-30T19:47:19;7.50;;;4.07;;
79570;SDS011;69034;49.444;7.758;2024-01-30T19:51:20;7.55;;;3.75;;
79570;SDS011;69034;49.444;7.758;2024-01-30T19:55:21;13.90;;;7.18;;
79570;SDS011;69034;49.444;7.758;2024-01-30T19:59:21;13.50;;;4.97;;
79570;SDS011;69034;49.444;7.758;2024-01-30T20:03:22;9.82;;;4.93;;
79570;SDS011;69034;49.444;7.758;2024-01-30T20:07:26;12.68;;;5.30;;
79570;SDS011;69034;49.444;7.758;2024-01-30T20:11:27;8.82;;;4.32;;
79570;SDS011;69034;49.444;7.758;2024-01-30T20:15:27;8.35;;;3.45;;
79570;SDS011;69034;49.444;7.758;2024-01-30T20:19:28;10.23;;;4.93;;
79570;SDS011;69034;49.444;7.758;2024-01-30T20:23:30;8.60;;;3.65;;
79570;SDS011;69034;49.444;7.758;2024-01-30T20:27:31;7.63;;;3.70;;
79570;SDS011;69034;49.444;7.758;2024-01-30T20:31:33;8.00;;;4.10;;
79570;SDS011;69034;49.444;7.758;2024-01-30T20:35:34;6.72;;;3.63;;
79570;SDS011;69034;49.444;7.758;2024-01-30T20:39:34;8.23;;;4.10;;
79570;SDS011;69034;49.444;7.758;2024-01-30T20:43:35;9.32;;;4.10;;
79570;SDS011;69034;49.444;7.758;2024-01-30T20:47:36;10.07;;;4.90;;
79570;SDS011;69034;49.444;7.758;2024-01-30T20:51:36;9.80;;;4.32;;
79570;SDS011;69034;49.444;7.758;2024-01-30T20:55:37;9.18;;;4.43;;
79570;SDS011;69034;49.444;7.758;2024-01-30T20:59:38;8.23;;;4.30;;
79570;SDS011;69034;49.444;7.758;2024-01-30T21:03:38;8.32;;;3.83;;
79570;SDS011;69034;49.444;7.758;2024-01-30T21:07:39;6.88;;;3.45;;
79570;SDS011;69034;49.444;7.758;2024-01-30T21:11:40;10.07;;;4.10;;
79570;SDS011;69034;49.444;7.758;2024-01-30T21:15:42;5.22;;;2.22;;
79570;SDS011;69034;49.444;7.758;2024-01-30T21:19:43;5.15;;;2.38;;
79570;SDS011;69034;49.444;7.758;2024-01-30T21:23:44;6.00;;;3.20;;
79570;SDS011;69034;49.444;7.758;2024-01-30T21:27:44;6.82;;;3.38;;
79570;SDS011;69034;49.444;7.758;2024-01-30T21:31:45;11.73;;;4.90;;
79570;SDS011;69034;49.444;7.758;2024-01-30T21:35:46;5.05;;;2.58;;
79570;SDS011;69034;49.444;7.758;2024-01-30T21:39:47;8.15;;;4.55;;
79570;SDS011;69034;49.444;7.758;2024-01-30T21:43:47;7.32;;;3.05;;
79570;SDS011;69034;49.444;7.758;2024-01-30T21:47:48;10.82;;;3.90;;
79570;SDS011;69034;49.444;7.758;2024-01-30T21:51:49;9.40;;;3.30;;
79570;SDS011;69034;49.444;7.758;2024-01-30T21:55:52;12.15;;;4.45;;
79570;SDS011;69034;49.444;7.758;2024-01-30T21:59:53;8.95;;;3.33;;
79570;SDS011;69034;49.444;7.758;2024-01-30T22:03:53;7.85;;;3.15;;
79570;SDS011;69034;49.444;7.758;2024-01-30T22:07:54;8.60;;;3.42;;
79570;SDS011;69034;49.444;7.758;2024-01-30T22:11:54;7.40;;;3.33;;
79570;SDS011;69034;49.444;7.758;2024-01-30T22:15:55;9.15;;;4.15;;
79570;SDS011;69034;49.444;7.758;2024-01-30T22:19:55;9.60;;;4.03;;
79570;SDS011;69034;49.444;7.758;2024-01-30T22:23:56;9.60;;;4.32;;
79570;SDS011;69034;49.444;7.758;2024-01-30T22:27:57;8.38;;;4.30;;
79570;SDS011;69034;49.444;7.758;2024-01-30T22:31:57;6.43;;;3.28;;
79570;SDS011;69034;49.444;7.758;2024-01-30T22:36:00;6.68;;;3.13;;
79570;SDS011;69034;49.444;7.758;2024-01-30T22:40:01;11.73;;;4.20;;
79570;SDS011;69034;49.444;7.758;2024-01-30T22:44:01;9.55;;;3.88;;
79570;SDS011;69034;49.444;7.758;2024-01-30T22:48:02;8.18;;;3.00;;
79570;SDS011;69034;49.444;7.758;2024-01-30T22:52:03;8.35;;;4.03;;
79570;SDS011;69034;49.444;7.758;2024-01-30T22:56:04;7.38;;;3.78;;
79570;SDS011;69034;49.444;7.758;2024-01-30T23:00:05;6.50;;;3.35;;
79570;SDS011;69034;49.444;7.758;2024-01-30T23:04:15;9.85;;;3.85;;
79570;SDS011;69034;49.444;7.758;2024-01-30T23:08:16;9.20;;;4.65;;
79570;SDS011;69034;49.444;7.758;2024-01-30T23:12:16;8.82;;;4.45;;
79570;SDS011;69034;49.444;7.758;2024-01-30T23:16:17;8.70;;;4.00;;
79570;SDS011;69034;49.444;7.758;2024-01-30T23:20:18;7.50;;;3.97;;
79570;SDS011;69034;49.444;7.758;2024-01-30T23:24:19;7.88;;;3.33;;
79570;SDS011;69034;49.444;7.758;2024-01-30T23:28:19;12.10;;;4.45;;
79570;SDS011;69034;49.444;7.758;2024-01-30T23:32:20;9.32;;;3.67;;
79570;SDS011;69034;49.444;7.758;2024-01-30T23:36:21;8.43;;;3.83;;
79570;SDS011;69034;49.444;7.758;2024-01-30T23:40:22;7.65;;;3.65;;
79570;SDS011;69034;49.444;7.758;2024-01-30T23:44:22;6.35;;;3.38;;
79570;SDS011;69034;49.444;7.758;2024-01-30T23:48:23;13.07;;;4.25;;
79570;SDS011;69034;49.444;7.758;2024-01-30T23:52:24;8.65;;;4.53;;
79570;SDS011;69034;49.444;7.758;2024-01-30T23:56:25;9.20;;;3.38;;
